Terminal Aerodrome Forecast
Issued by NWS Sterling, VA

Current Version | Previous Version | Text Only | Print | Product List | Glossary Off
Versions: 1 2 3 4 5 6 7 8 9 10 11 12 13 14 15 16

000
FTUS41 KLWX 240535
TAFMRB
TAF
KMRB 240535Z 2406/2506 VRB03KT P6SM SCT050 OVC100
     FM241000 VRB03KT 6SM -RA SCT025 OVC050
     FM241400 07008KT P6SM SCT025 OVC050
     FM241800 07008G16KT 6SM -RA SCT025 OVC050
     FM250000 05009KT 5SM -RA BKN015 OVC050
     FM250400 05008KT 5SM -RA BKN008 OVC015=

USA.gov is the U.S. government's official web portal to all federal, state and local government web resources and services.